GEC8297 HKJK-EDDF
Flight info
| Callsign | GEC8297 |
|---|---|
| Flight time | N/A |
| Altitude | 30000 |
| Route | ETORU1A LOTAS UM308 RUDOL/N0495F310 UM308 GETOL M308 KONET UG650 ASM/N0492F330 UG650 RASKA/N0490F320 T513 EGMEG/N0487F330 G660 JDW/N0487F320 L677 RAGNO/N0484F340 L677 CVO L617 MENKU Y661 ANTAR DCT AKINA DCT RIGRO DCT FSK/N0468F360 UL608 DISOR DCT LONTA UL608 DOLEV DCT BEDOX DCT SIMBA DCT AKINI T161 DEBHI DEBHI1B |
| Aircraft | MD11/H-SDE1E2E3FGHIJ2J3J4J5M1RWXY/LB1D1 |
Departure
| Time | 2026-05-05 22:32 |
|---|---|
| Airport | Jomo Kenyatta International Airport (HKJK) |
Arrival
| Time | N/A |
|---|---|
| Airport | Frankfurt Main Airport (EDDF) |
| Time | Latitude | Longitude | Altitude | Speed | Heading |
|---|---|---|---|---|---|
| 2026-05-05 21:59 | -1.33378 | 36.91562 | 5334 ft | 0 kts | 143° |
| 2026-05-05 22:21 | -1.33368 | 36.91555 | 5337 ft | 4 kts | 144° |
| 2026-05-05 22:22 | -1.33346 | 36.91539 | 5336 ft | 4 kts | 144° |
| 2026-05-05 22:22 | -1.33328 | 36.91525 | 5336 ft | 2 kts | 143° |
| 2026-05-05 22:22 | -1.33312 | 36.91511 | 5337 ft | 4 kts | 107° |
| 2026-05-05 22:22 | -1.33310 | 36.91493 | 5337 ft | 4 kts | 58° |
| 2026-05-05 22:23 | -1.33324 | 36.91472 | 5337 ft | 4 kts | 54° |
| 2026-05-05 22:23 | -1.33330 | 36.91465 | 5337 ft | 0 kts | 54° |
| 2026-05-05 22:27 | -1.33329 | 36.91466 | 5337 ft | 1 kts | 54° |
| 2026-05-05 22:27 | -1.33322 | 36.91476 | 5337 ft | 3 kts | 54° |
| 2026-05-05 22:27 | -1.33307 | 36.91496 | 5337 ft | 4 kts | 54° |
| 2026-05-05 22:28 | -1.33286 | 36.91525 | 5336 ft | 6 kts | 53° |
| 2026-05-05 22:28 | -1.33258 | 36.91563 | 5337 ft | 8 kts | 53° |
| 2026-05-05 22:28 | -1.33221 | 36.91608 | 5336 ft | 9 kts | 49° |
| 2026-05-05 22:28 | -1.33171 | 36.91652 | 5335 ft | 10 kts | 38° |
| 2026-05-05 22:29 | -1.33117 | 36.91706 | 5337 ft | 12 kts | 51° |
| 2026-05-05 22:29 | -1.33065 | 36.91772 | 5339 ft | 12 kts | 50° |
| 2026-05-05 22:29 | -1.33020 | 36.91811 | 5344 ft | 7 kts | 21° |
| 2026-05-05 22:29 | -1.32980 | 36.91805 | 5345 ft | 6 kts | 335° |
| 2026-05-05 22:30 | -1.32934 | 36.91773 | 5347 ft | 11 kts | 324° |
| 2026-05-05 22:30 | -1.32852 | 36.91715 | 5348 ft | 17 kts | 324° |
| 2026-05-05 22:30 | -1.32769 | 36.91661 | 5346 ft | 9 kts | 347° |
| 2026-05-05 22:30 | -1.32726 | 36.91684 | 5346 ft | 6 kts | 47° |
| 2026-05-05 22:31 | -1.32717 | 36.91696 | 5346 ft | 0 kts | 51° |
| 2026-05-05 22:31 | -1.32711 | 36.91704 | 5346 ft | 10 kts | 52° |
| 2026-05-05 22:31 | -1.32524 | 36.91958 | 5338 ft | 82 kts | 54° |
| 2026-05-05 22:31 | -1.32049 | 36.92606 | 5317 ft | 146 kts | 53° |
| 2026-05-05 22:32 | -1.31339 | 36.93575 | 5312 ft | 193 kts | 54° |
| 2026-05-05 22:32 | -1.30521 | 36.94668 | 5743 ft | 195 kts | 54° |
| 2026-05-05 22:32 | -1.29700 | 36.95749 | 6479 ft | 195 kts | 53° |
| 2026-05-05 22:32 | -1.28856 | 36.96803 | 7071 ft | 194 kts | 53° |
| 2026-05-05 22:33 | -1.28004 | 36.97889 | 7412 ft | 204 kts | 54° |
| 2026-05-05 22:33 | -1.27161 | 36.99037 | 7820 ft | 206 kts | 55° |
| 2026-05-05 22:33 | -1.26290 | 37.00225 | 8156 ft | 218 kts | 53° |
| 2026-05-05 22:33 | -1.25269 | 37.01357 | 8511 ft | 231 kts | 41° |
| 2026-05-05 22:34 | -1.23843 | 37.02226 | 8661 ft | 250 kts | 21° |
| 2026-05-05 22:34 | -1.22090 | 37.02535 | 8802 ft | 265 kts | 358° |
| 2026-05-05 22:34 | -1.20206 | 37.02219 | 8940 ft | 287 kts | 346° |
| 2026-05-05 22:34 | -1.18207 | 37.01640 | 9171 ft | 308 kts | 343° |
| 2026-05-05 22:35 | -1.16152 | 37.00996 | 9890 ft | 311 kts | 343° |
| 2026-05-05 22:35 | -1.14023 | 37.00328 | 10205 ft | 332 kts | 343° |
| 2026-05-05 22:35 | -1.11729 | 36.99619 | 10333 ft | 357 kts | 343° |
| 2026-05-05 22:35 | -1.09320 | 36.98881 | 10869 ft | 365 kts | 343° |
| 2026-05-05 22:36 | -1.06881 | 36.98139 | 11589 ft | 368 kts | 343° |
| 2026-05-05 22:36 | -1.04413 | 36.97391 | 12286 ft | 371 kts | 343° |
| 2026-05-05 22:36 | -1.01931 | 36.96642 | 12988 ft | 375 kts | 344° |
| 2026-05-05 22:36 | -0.99420 | 36.95886 | 13643 ft | 379 kts | 343° |
| 2026-05-05 22:37 | -0.96888 | 36.95124 | 14246 ft | 382 kts | 343° |
| 2026-05-05 22:37 | -0.94326 | 36.94353 | 14801 ft | 386 kts | 343° |
| 2026-05-05 22:37 | -0.91739 | 36.93576 | 15348 ft | 390 kts | 344° |
| 2026-05-05 22:37 | -0.89128 | 36.92791 | 15882 ft | 393 kts | 344° |
| 2026-05-05 22:38 | -0.86491 | 36.91998 | 16404 ft | 397 kts | 344° |
| 2026-05-05 22:38 | -0.83830 | 36.91198 | 16911 ft | 401 kts | 344° |
| 2026-05-05 22:38 | -0.81182 | 36.90402 | 17408 ft | 404 kts | 344° |
| 2026-05-05 22:38 | -0.78480 | 36.89590 | 17899 ft | 408 kts | 344° |
| 2026-05-05 22:39 | -0.75744 | 36.88767 | 18395 ft | 412 kts | 344° |
| 2026-05-05 22:39 | -0.72986 | 36.87938 | 18806 ft | 415 kts | 344° |
| 2026-05-05 22:39 | -0.70208 | 36.87103 | 19220 ft | 418 kts | 344° |
| 2026-05-05 22:39 | -0.67410 | 36.86262 | 19643 ft | 421 kts | 344° |
| 2026-05-05 22:40 | -0.64591 | 36.85414 | 20040 ft | 424 kts | 344° |
| 2026-05-05 22:40 | -0.61756 | 36.84562 | 20450 ft | 426 kts | 344° |
| 2026-05-05 22:40 | -0.58904 | 36.83704 | 20840 ft | 429 kts | 344° |
| 2026-05-05 22:40 | -0.56063 | 36.82848 | 21245 ft | 432 kts | 344° |
| 2026-05-05 22:41 | -0.53167 | 36.81977 | 21653 ft | 435 kts | 344° |
| 2026-05-05 22:41 | -0.50257 | 36.81102 | 22065 ft | 438 kts | 344° |
| 2026-05-05 22:41 | -0.47324 | 36.80221 | 22478 ft | 440 kts | 344° |
| 2026-05-05 22:41 | -0.44409 | 36.79344 | 22870 ft | 444 kts | 344° |
| 2026-05-05 22:42 | -0.41444 | 36.78454 | 23301 ft | 447 kts | 344° |
| 2026-05-05 22:42 | -0.38455 | 36.77555 | 23715 ft | 450 kts | 344° |
| 2026-05-05 22:42 | -0.35442 | 36.76650 | 24082 ft | 453 kts | 344° |
| 2026-05-05 22:42 | -0.32417 | 36.75741 | 24456 ft | 455 kts | 344° |
| 2026-05-05 22:43 | -0.29372 | 36.74827 | 24840 ft | 458 kts | 344° |
| 2026-05-05 22:43 | -0.26314 | 36.73908 | 25226 ft | 460 kts | 344° |
| 2026-05-05 22:43 | -0.23235 | 36.72983 | 25611 ft | 463 kts | 344° |
| 2026-05-05 22:43 | -0.20143 | 36.72053 | 25993 ft | 465 kts | 344° |
| 2026-05-05 22:44 | -0.17065 | 36.71128 | 26362 ft | 468 kts | 344° |
| 2026-05-05 22:44 | -0.13934 | 36.70188 | 26722 ft | 471 kts | 344° |
| 2026-05-05 22:44 | -0.10783 | 36.69241 | 27101 ft | 473 kts | 344° |
| 2026-05-05 22:44 | -0.07599 | 36.68361 | 27441 ft | 476 kts | 348° |
| 2026-05-05 22:45 | -0.04340 | 36.67723 | 27794 ft | 478 kts | 351° |
| 2026-05-05 22:45 | -0.01041 | 36.67234 | 28140 ft | 481 kts | 353° |
| 2026-05-05 22:45 | 0.02289 | 36.66802 | 28485 ft | 483 kts | 353° |
| 2026-05-05 22:45 | 0.05637 | 36.66379 | 28835 ft | 486 kts | 353° |
| 2026-05-05 22:46 | 0.08997 | 36.65945 | 29176 ft | 488 kts | 353° |
| 2026-05-05 22:46 | 0.12378 | 36.65494 | 29506 ft | 491 kts | 353° |
| 2026-05-05 22:46 | 0.15778 | 36.65029 | 29834 ft | 494 kts | 353° |
| 2026-05-05 22:46 | 0.19179 | 36.64557 | 30232 ft | 494 kts | 353° |
| 2026-05-05 22:47 | 0.22580 | 36.64081 | 30618 ft | 493 kts | 353° |
| 2026-05-05 22:47 | 0.25971 | 36.63606 | 30969 ft | 492 kts | 353° |
| 2026-05-05 22:47 | 0.29310 | 36.63138 | 31300 ft | 490 kts | 353° |
| 2026-05-05 22:47 | 0.32686 | 36.62666 | 31645 ft | 489 kts | 353° |
| 2026-05-05 22:48 | 0.36056 | 36.62195 | 31963 ft | 488 kts | 353° |
| 2026-05-05 22:48 | 0.42808 | 36.61253 | 32082 ft | 491 kts | 353° |
| 2026-05-05 22:49 | 0.49594 | 36.60307 | 32079 ft | 492 kts | 353° |
| 2026-05-05 22:49 | 0.56382 | 36.59359 | 32074 ft | 493 kts | 353° |
| 2026-05-05 22:50 | 0.63133 | 36.58417 | 32069 ft | 493 kts | 353° |
| 2026-05-05 22:50 | 0.69937 | 36.57467 | 32060 ft | 493 kts | 353° |
| 2026-05-05 22:51 | 0.76733 | 36.56518 | 32053 ft | 493 kts | 353° |
| 2026-05-05 22:51 | 0.83536 | 36.55568 | 32045 ft | 493 kts | 353° |
| 2026-05-05 22:52 | 0.90335 | 36.54619 | 32038 ft | 493 kts | 353° |
| 2026-05-05 22:52 | 0.97131 | 36.53674 | 32028 ft | 493 kts | 354° |
| 2026-05-05 22:53 | 1.03892 | 36.53709 | 32019 ft | 488 kts | 12° |
| 2026-05-05 22:53 | 1.10406 | 36.55587 | 32016 ft | 488 kts | 20° |
| 2026-05-05 22:54 | 1.16831 | 36.57784 | 32010 ft | 488 kts | 19° |
| 2026-05-05 22:54 | 1.23318 | 36.59825 | 32002 ft | 488 kts | 18° |
| 2026-05-05 22:55 | 1.29825 | 36.61763 | 31991 ft | 488 kts | 18° |
| 2026-05-05 22:55 | 1.36337 | 36.63682 | 31987 ft | 488 kts | 18° |
| 2026-05-05 22:56 | 1.42846 | 36.65605 | 31978 ft | 488 kts | 18° |
| 2026-05-05 22:56 | 1.49357 | 36.67533 | 31974 ft | 487 kts | 18° |
| 2026-05-05 22:57 | 1.55861 | 36.69461 | 31968 ft | 487 kts | 18° |
| 2026-05-05 22:57 | 1.62368 | 36.71389 | 31961 ft | 487 kts | 18° |
| 2026-05-05 22:58 | 1.68824 | 36.73302 | 31957 ft | 487 kts | 18° |
| 2026-05-05 22:58 | 1.75317 | 36.75226 | 31959 ft | 487 kts | 18° |
| 2026-05-05 22:59 | 1.81823 | 36.77154 | 31959 ft | 487 kts | 18° |
| 2026-05-05 22:59 | 1.88317 | 36.79079 | 31955 ft | 487 kts | 18° |
| 2026-05-05 23:00 | 1.98060 | 36.81967 | 31950 ft | 487 kts | 18° |
| 2026-05-05 23:00 | 2.04519 | 36.83882 | 31946 ft | 487 kts | 18° |
| 2026-05-05 23:01 | 2.11027 | 36.85812 | 31942 ft | 487 kts | 18° |
| 2026-05-05 23:01 | 2.17520 | 36.87737 | 31937 ft | 487 kts | 18° |
| 2026-05-05 23:02 | 2.24020 | 36.89664 | 31934 ft | 487 kts | 18° |
| 2026-05-05 23:02 | 2.30528 | 36.91594 | 31926 ft | 487 kts | 18° |
| 2026-05-05 23:03 | 2.36999 | 36.93513 | 31924 ft | 487 kts | 18° |
| 2026-05-05 23:03 | 2.43514 | 36.95446 | 31922 ft | 487 kts | 18° |
| 2026-05-05 23:04 | 2.50018 | 36.97375 | 31919 ft | 487 kts | 18° |
| 2026-05-05 23:04 | 2.56521 | 36.99304 | 31914 ft | 487 kts | 18° |
| 2026-05-05 23:05 | 2.63033 | 37.01236 | 31911 ft | 487 kts | 18° |
| 2026-05-05 23:05 | 2.69497 | 37.03155 | 31905 ft | 487 kts | 18° |
| 2026-05-05 23:06 | 2.75997 | 37.05084 | 31903 ft | 487 kts | 18° |
| 2026-05-05 23:06 | 2.82509 | 37.07016 | 31900 ft | 488 kts | 18° |
| 2026-05-05 23:07 | 2.87920 | 37.08622 | 31897 ft | 488 kts | 18° |
| 2026-05-05 23:07 | 2.94433 | 37.10556 | 31893 ft | 488 kts | 18° |
| 2026-05-05 23:08 | 3.00946 | 37.12490 | 31891 ft | 488 kts | 18° |
| 2026-05-05 23:08 | 3.07474 | 37.14431 | 31887 ft | 490 kts | 16° |
| 2026-05-05 23:09 | 3.13983 | 37.16363 | 31882 ft | 491 kts | 16° |
| 2026-05-05 23:09 | 3.20532 | 37.18307 | 31881 ft | 491 kts | 16° |
| 2026-05-05 23:10 | 3.27083 | 37.20252 | 31882 ft | 491 kts | 16° |
| 2026-05-05 23:10 | 3.33635 | 37.22199 | 31882 ft | 491 kts | 16° |
| 2026-05-05 23:11 | 3.40186 | 37.24146 | 31888 ft | 490 kts | 16° |
| 2026-05-05 23:11 | 3.46695 | 37.26080 | 31886 ft | 491 kts | 16° |
| 2026-05-05 23:12 | 3.53240 | 37.28026 | 31890 ft | 490 kts | 16° |
| 2026-05-05 23:12 | 3.59788 | 37.29973 | 31895 ft | 490 kts | 16° |
| 2026-05-05 23:13 | 3.66332 | 37.31918 | 31900 ft | 490 kts | 16° |
| 2026-05-05 23:13 | 3.72872 | 37.33863 | 31902 ft | 490 kts | 16° |
| 2026-05-05 23:14 | 3.79418 | 37.35810 | 31907 ft | 490 kts | 16° |
| 2026-05-05 23:14 | 3.85922 | 37.37744 | 31912 ft | 490 kts | 16° |
| 2026-05-05 23:15 | 3.92459 | 37.39689 | 31914 ft | 490 kts | 16° |
| 2026-05-05 23:15 | 3.99008 | 37.41631 | 31921 ft | 490 kts | 16° |
| 2026-05-05 23:16 | 4.05580 | 37.43458 | 31930 ft | 489 kts | 15° |
| 2026-05-05 23:16 | 4.12158 | 37.45225 | 31933 ft | 490 kts | 15° |
| 2026-05-05 23:17 | 4.18711 | 37.46987 | 31939 ft | 490 kts | 15° |
| 2026-05-05 23:17 | 4.25297 | 37.48766 | 31945 ft | 490 kts | 15° |
| 2026-05-05 23:18 | 4.31886 | 37.50550 | 31948 ft | 490 kts | 15° |
| 2026-05-05 23:18 | 4.38469 | 37.52332 | 31955 ft | 490 kts | 15° |
| 2026-05-05 23:19 | 4.45016 | 37.54104 | 31961 ft | 490 kts | 15° |
| 2026-05-05 23:19 | 4.51601 | 37.55887 | 31967 ft | 490 kts | 15° |
| 2026-05-05 23:20 | 4.58191 | 37.57672 | 31969 ft | 490 kts | 15° |
| 2026-05-05 23:20 | 4.64790 | 37.59460 | 31969 ft | 490 kts | 15° |
| 2026-05-05 23:21 | 4.71376 | 37.61244 | 31974 ft | 490 kts | 15° |
| 2026-05-05 23:21 | 4.77954 | 37.63027 | 31974 ft | 490 kts | 15° |
| 2026-05-05 23:22 | 4.84493 | 37.64799 | 31975 ft | 489 kts | 15° |
| 2026-05-05 23:22 | 4.91066 | 37.66582 | 31973 ft | 489 kts | 15° |
| 2026-05-05 23:23 | 4.97630 | 37.68362 | 31977 ft | 488 kts | 15° |
| 2026-05-05 23:23 | 5.04195 | 37.70143 | 31979 ft | 488 kts | 15° |
| 2026-05-05 23:24 | 5.10754 | 37.71922 | 31983 ft | 488 kts | 15° |
| 2026-05-05 23:24 | 5.17302 | 37.73698 | 31984 ft | 488 kts | 15° |
| 2026-05-05 23:25 | 5.23859 | 37.75478 | 31991 ft | 488 kts | 15° |
| 2026-05-05 23:25 | 5.30410 | 37.77256 | 31994 ft | 487 kts | 15° |
| 2026-05-05 23:26 | 5.36911 | 37.79021 | 31994 ft | 487 kts | 15° |
| 2026-05-05 23:26 | 5.43455 | 37.80798 | 31996 ft | 487 kts | 15° |
| 2026-05-05 23:27 | 5.50005 | 37.82577 | 32001 ft | 487 kts | 15° |
| 2026-05-05 23:27 | 5.56554 | 37.84356 | 31999 ft | 487 kts | 15° |
| 2026-05-05 23:28 | 5.63101 | 37.86136 | 31999 ft | 487 kts | 15° |
| 2026-05-05 23:28 | 5.69648 | 37.87916 | 31998 ft | 487 kts | 15° |
| 2026-05-05 23:29 | 5.76196 | 37.89697 | 31998 ft | 487 kts | 15° |
| 2026-05-05 23:29 | 5.82741 | 37.91477 | 31997 ft | 487 kts | 15° |
| 2026-05-05 23:30 | 5.89248 | 37.93247 | 31996 ft | 487 kts | 15° |
| 2026-05-05 23:30 | 5.95791 | 37.95026 | 31995 ft | 487 kts | 15° |
| 2026-05-05 23:31 | 6.02340 | 37.96809 | 31994 ft | 487 kts | 15° |
| 2026-05-05 23:31 | 6.08884 | 37.98590 | 31995 ft | 487 kts | 15° |
| 2026-05-05 23:32 | 6.15446 | 38.00377 | 31995 ft | 488 kts | 15° |
| 2026-05-05 23:32 | 6.21957 | 38.02150 | 31995 ft | 488 kts | 15° |
| 2026-05-05 23:33 | 6.28519 | 38.03937 | 31996 ft | 488 kts | 15° |
| 2026-05-05 23:33 | 6.35081 | 38.05725 | 31999 ft | 488 kts | 15° |
| 2026-05-05 23:34 | 6.41639 | 38.07513 | 32002 ft | 488 kts | 15° |
| 2026-05-05 23:34 | 6.48192 | 38.09300 | 32004 ft | 488 kts | 15° |
| 2026-05-05 23:35 | 6.54760 | 38.11090 | 32008 ft | 488 kts | 15° |
| 2026-05-05 23:35 | 6.61283 | 38.12857 | 32010 ft | 488 kts | 15° |
| 2026-05-05 23:36 | 6.67843 | 38.14632 | 32016 ft | 488 kts | 15° |
| 2026-05-05 23:36 | 6.74413 | 38.16411 | 32020 ft | 488 kts | 15° |
| 2026-05-05 23:37 | 6.80979 | 38.18190 | 32024 ft | 488 kts | 15° |
| 2026-05-05 23:37 | 6.87540 | 38.19968 | 32031 ft | 489 kts | 15° |
| 2026-05-05 23:38 | 6.94109 | 38.21749 | 32035 ft | 489 kts | 15° |
| 2026-05-05 23:38 | 7.00671 | 38.23528 | 32038 ft | 489 kts | 15° |
| 2026-05-05 23:39 | 7.07245 | 38.25312 | 32040 ft | 489 kts | 15° |
| 2026-05-05 23:39 | 7.13820 | 38.27096 | 32042 ft | 489 kts | 15° |
| 2026-05-05 23:40 | 7.20358 | 38.28870 | 32041 ft | 489 kts | 15° |
| 2026-05-05 23:40 | 7.26934 | 38.30656 | 32044 ft | 489 kts | 15° |
| 2026-05-05 23:41 | 7.33512 | 38.32442 | 32039 ft | 489 kts | 15° |
| 2026-05-05 23:41 | 7.40082 | 38.34229 | 32043 ft | 489 kts | 15° |
| 2026-05-05 23:42 | 7.46660 | 38.36015 | 32041 ft | 489 kts | 15° |
| 2026-05-05 23:42 | 7.53243 | 38.37707 | 32040 ft | 488 kts | 14° |
| 2026-05-05 23:43 | 7.59803 | 38.39328 | 32036 ft | 488 kts | 14° |
| 2026-05-05 23:43 | 7.66400 | 38.40957 | 32040 ft | 488 kts | 14° |
| 2026-05-05 23:44 | 7.73001 | 38.42595 | 32043 ft | 488 kts | 14° |
| 2026-05-05 23:44 | 7.79603 | 38.44237 | 32044 ft | 489 kts | 14° |
| 2026-05-05 23:45 | 7.86210 | 38.45881 | 32045 ft | 489 kts | 14° |
| 2026-05-05 23:45 | 7.92821 | 38.47526 | 32048 ft | 489 kts | 14° |
| 2026-05-05 23:46 | 7.99436 | 38.49173 | 32054 ft | 489 kts | 14° |
| 2026-05-05 23:46 | 8.06034 | 38.50816 | 32056 ft | 489 kts | 14° |
| 2026-05-05 23:47 | 8.12601 | 38.52451 | 32056 ft | 489 kts | 14° |
| 2026-05-05 23:47 | 8.19198 | 38.54098 | 32058 ft | 489 kts | 14° |
| 2026-05-05 23:48 | 8.25801 | 38.55757 | 32060 ft | 488 kts | 14° |
| 2026-05-05 23:48 | 8.32400 | 38.57418 | 32061 ft | 489 kts | 14° |
| 2026-05-05 23:49 | 8.39014 | 38.59083 | 32058 ft | 489 kts | 14° |
| 2026-05-05 23:49 | 8.45622 | 38.60746 | 32057 ft | 490 kts | 14° |
| 2026-05-05 23:50 | 8.52232 | 38.62410 | 32057 ft | 490 kts | 14° |
| 2026-05-05 23:50 | 8.58849 | 38.64076 | 32060 ft | 490 kts | 14° |
| 2026-05-05 23:51 | 8.65439 | 38.65736 | 32068 ft | 490 kts | 14° |
| 2026-05-05 23:51 | 8.72064 | 38.67405 | 32142 ft | 491 kts | 14° |
| 2026-05-05 23:52 | 8.78694 | 38.69077 | 32212 ft | 491 kts | 14° |
| 2026-05-05 23:52 | 8.85333 | 38.70751 | 32282 ft | 491 kts | 14° |
| 2026-05-05 23:53 | 8.91976 | 38.72427 | 32344 ft | 491 kts | 14° |
| 2026-05-05 23:53 | 8.98566 | 38.74090 | 32347 ft | 491 kts | 14° |
| 2026-05-05 23:54 | 9.05207 | 38.75768 | 32348 ft | 492 kts | 14° |
| 2026-05-05 23:54 | 9.11911 | 38.77087 | 32284 ft | 491 kts | 5° |
| 2026-05-05 23:55 | 9.17635 | 38.77344 | 32225 ft | 491 kts | 0° |
| 2026-05-05 23:55 | 9.24443 | 38.77402 | 32155 ft | 492 kts | 0° |
| 2026-05-05 23:56 | 9.31285 | 38.77515 | 32083 ft | 492 kts | 1° |
| 2026-05-05 23:56 | 9.38134 | 38.77690 | 32056 ft | 492 kts | 1° |
| 2026-05-05 23:57 | 9.44947 | 38.77880 | 32052 ft | 492 kts | 1° |
| 2026-05-05 23:57 | 9.51794 | 38.78071 | 32045 ft | 492 kts | 1° |
| 2026-05-05 23:58 | 9.58640 | 38.78259 | 32035 ft | 492 kts | 1° |
| 2026-05-05 23:58 | 9.65497 | 38.78446 | 32024 ft | 492 kts | 1° |
| 2026-05-05 23:59 | 9.72353 | 38.78633 | 32018 ft | 493 kts | 1° |
| 2026-05-05 23:59 | 9.79212 | 38.78821 | 32004 ft | 493 kts | 1° |
| 2026-05-06 00:00 | 9.86030 | 38.79008 | 31992 ft | 493 kts | 1° |
| 2026-05-06 00:00 | 9.92897 | 38.79196 | 31987 ft | 493 kts | 1° |
| 2026-05-06 00:01 | 9.99765 | 38.79385 | 31978 ft | 493 kts | 1° |
| 2026-05-06 00:01 | 10.06635 | 38.79573 | 31972 ft | 493 kts | 1° |
| 2026-05-06 00:02 | 10.13504 | 38.79762 | 31962 ft | 493 kts | 1° |
| 2026-05-06 00:02 | 10.20369 | 38.79950 | 31958 ft | 493 kts | 1° |
| 2026-05-06 00:03 | 10.27236 | 38.80139 | 31957 ft | 493 kts | 1° |
| 2026-05-06 00:03 | 10.34052 | 38.80326 | 31960 ft | 493 kts | 1° |
| 2026-05-06 00:04 | 10.40919 | 38.80515 | 31967 ft | 493 kts | 1° |
| 2026-05-06 00:04 | 10.47781 | 38.80704 | 31967 ft | 493 kts | 1° |
| 2026-05-06 00:05 | 10.58083 | 38.80987 | 31987 ft | 493 kts | 1° |
| 2026-05-06 00:06 | 10.64950 | 38.81176 | 31989 ft | 493 kts | 1° |
| 2026-05-06 00:06 | 10.71833 | 38.81366 | 32000 ft | 494 kts | 0° |
| 2026-05-06 00:07 | 10.78704 | 38.81555 | 32010 ft | 494 kts | 0° |
| 2026-05-06 00:07 | 10.85574 | 38.81744 | 32015 ft | 494 kts | 0° |
| 2026-05-06 00:08 | 10.92397 | 38.81931 | 32023 ft | 494 kts | 0° |
| 2026-05-06 00:08 | 10.99273 | 38.82119 | 32023 ft | 494 kts | 0° |
| 2026-05-06 00:09 | 11.06149 | 38.82308 | 32022 ft | 494 kts | 0° |
| 2026-05-06 00:09 | 11.13024 | 38.82497 | 32019 ft | 494 kts | 0° |
| 2026-05-06 00:10 | 11.19903 | 38.82686 | 32015 ft | 494 kts | 0° |
| 2026-05-06 00:10 | 11.26773 | 38.82875 | 32006 ft | 494 kts | 0° |
| 2026-05-06 00:11 | 11.33640 | 38.83064 | 32008 ft | 493 kts | 0° |
| 2026-05-06 00:11 | 11.40500 | 38.83253 | 32013 ft | 493 kts | 0° |
| 2026-05-06 00:12 | 11.47323 | 38.83440 | 32019 ft | 493 kts | 0° |
| 2026-05-06 00:12 | 11.54183 | 38.83629 | 32017 ft | 493 kts | 0° |
| 2026-05-06 00:13 | 11.61043 | 38.83818 | 32022 ft | 493 kts | 0° |
| 2026-05-06 00:13 | 11.67900 | 38.84007 | 32029 ft | 493 kts | 0° |
| 2026-05-06 00:14 | 11.74759 | 38.84196 | 32025 ft | 493 kts | 0° |
| 2026-05-06 00:14 | 11.81620 | 38.84385 | 32026 ft | 493 kts | 0° |
| 2026-05-06 00:15 | 11.88441 | 38.84573 | 32026 ft | 493 kts | 0° |
| 2026-05-06 00:15 | 11.95296 | 38.84762 | 32025 ft | 493 kts | 0° |
| 2026-05-06 00:16 | 12.02149 | 38.84951 | 32018 ft | 493 kts | 0° |
| 2026-05-06 00:16 | 12.09008 | 38.85140 | 32014 ft | 493 kts | 0° |
| 2026-05-06 00:17 | 12.15870 | 38.85330 | 32012 ft | 493 kts | 0° |
| 2026-05-06 00:17 | 12.22736 | 38.85519 | 32008 ft | 494 kts | 0° |
| 2026-05-06 00:18 | 12.29613 | 38.85710 | 32008 ft | 494 kts | 0° |
| 2026-05-06 00:18 | 12.36499 | 38.85902 | 32003 ft | 494 kts | 0° |
| 2026-05-06 00:19 | 12.43376 | 38.86094 | 31999 ft | 495 kts | 0° |
| 2026-05-06 00:19 | 12.50217 | 38.86285 | 31990 ft | 494 kts | 0° |
| 2026-05-06 00:20 | 12.57098 | 38.86478 | 31982 ft | 495 kts | 0° |
| 2026-05-06 00:20 | 12.63981 | 38.86671 | 31977 ft | 495 kts | 0° |
| 2026-05-06 00:21 | 12.70879 | 38.86863 | 31973 ft | 495 kts | 0° |
| 2026-05-06 00:21 | 12.77765 | 38.87056 | 31963 ft | 495 kts | 0° |
| 2026-05-06 00:22 | 12.84658 | 38.87250 | 31956 ft | 495 kts | 0° |
| 2026-05-06 00:22 | 12.91541 | 38.87442 | 31953 ft | 495 kts | 360° |
| 2026-05-06 00:23 | 12.98380 | 38.87588 | 31948 ft | 494 kts | 359° |
| 2026-05-06 00:23 | 13.05258 | 38.87707 | 31957 ft | 494 kts | 359° |
| 2026-05-06 00:24 | 13.12141 | 38.87826 | 31955 ft | 494 kts | 359° |
| 2026-05-06 00:24 | 13.19026 | 38.87948 | 31953 ft | 494 kts | 359° |
| 2026-05-06 00:25 | 13.25914 | 38.88071 | 31954 ft | 495 kts | 359° |
| 2026-05-06 00:25 | 13.32816 | 38.88195 | 31959 ft | 495 kts | 359° |
| 2026-05-06 00:26 | 13.39658 | 38.88318 | 31960 ft | 495 kts | 359° |
| 2026-05-06 00:26 | 13.46541 | 38.88442 | 31964 ft | 495 kts | 359° |
| 2026-05-06 00:27 | 13.53436 | 38.88566 | 31967 ft | 495 kts | 359° |
| 2026-05-06 00:27 | 13.60336 | 38.88690 | 31966 ft | 495 kts | 359° |
| 2026-05-06 00:28 | 13.67228 | 38.88814 | 31969 ft | 495 kts | 359° |
| 2026-05-06 00:28 | 13.74134 | 38.88939 | 31969 ft | 495 kts | 359° |
| 2026-05-06 00:29 | 13.80988 | 38.89062 | 31974 ft | 495 kts | 359° |
| 2026-05-06 00:29 | 13.87888 | 38.89187 | 31977 ft | 495 kts | 359° |
| 2026-05-06 00:30 | 13.94787 | 38.89311 | 31978 ft | 495 kts | 359° |
| 2026-05-06 00:30 | 14.01678 | 38.89436 | 31981 ft | 495 kts | 359° |
| 2026-05-06 00:31 | 14.08573 | 38.89534 | 31975 ft | 495 kts | 359° |
| 2026-05-06 00:31 | 14.15431 | 38.89606 | 31979 ft | 495 kts | 359° |
| 2026-05-06 00:32 | 14.22331 | 38.89677 | 31975 ft | 496 kts | 359° |
| 2026-05-06 00:32 | 14.29231 | 38.89751 | 31975 ft | 496 kts | 359° |
| 2026-05-06 00:33 | 14.36141 | 38.89826 | 31969 ft | 496 kts | 359° |
| 2026-05-06 00:33 | 14.43047 | 38.89901 | 31969 ft | 496 kts | 359° |
| 2026-05-06 00:34 | 14.49960 | 38.89971 | 31968 ft | 496 kts | 358° |
| 2026-05-06 00:34 | 14.56831 | 38.89993 | 31971 ft | 497 kts | 358° |
| 2026-05-06 00:35 | 14.63745 | 38.89994 | 31968 ft | 497 kts | 358° |
| 2026-05-06 00:35 | 14.70668 | 38.89998 | 31970 ft | 497 kts | 358° |
| 2026-05-06 00:36 | 14.77586 | 38.90004 | 31971 ft | 497 kts | 358° |
| 2026-05-06 00:36 | 14.84517 | 38.90011 | 31980 ft | 498 kts | 358° |
| 2026-05-06 00:37 | 14.91450 | 38.90018 | 31977 ft | 498 kts | 358° |
| 2026-05-06 00:37 | 14.98331 | 38.90025 | 31983 ft | 497 kts | 358° |
| 2026-05-06 00:38 | 15.05260 | 38.90032 | 31985 ft | 498 kts | 358° |
| 2026-05-06 00:38 | 15.12199 | 38.90039 | 31982 ft | 498 kts | 358° |
| 2026-05-06 00:39 | 15.19138 | 38.90046 | 31982 ft | 498 kts | 358° |
| 2026-05-06 00:39 | 15.26075 | 38.90054 | 31976 ft | 498 kts | 358° |
| 2026-05-06 00:40 | 15.32974 | 38.90186 | 31969 ft | 499 kts | 360° |
| 2026-05-06 00:40 | 15.39919 | 38.90444 | 31960 ft | 499 kts | 0° |
| 2026-05-06 00:41 | 15.46873 | 38.90712 | 31957 ft | 499 kts | 360° |
| 2026-05-06 00:41 | 15.53826 | 38.90967 | 31945 ft | 499 kts | 360° |
| 2026-05-06 00:42 | 15.60740 | 38.91215 | 31933 ft | 500 kts | 360° |
| 2026-05-06 00:42 | 15.67695 | 38.91464 | 31925 ft | 500 kts | 360° |
| 2026-05-06 00:43 | 15.73519 | 38.91673 | 31923 ft | 500 kts | 360° |
| 2026-05-06 00:43 | 15.80468 | 38.91923 | 31912 ft | 500 kts | 360° |
| 2026-05-06 00:44 | 15.87419 | 38.92173 | 31905 ft | 500 kts | 360° |
| 2026-05-06 00:44 | 15.94321 | 38.92421 | 31907 ft | 499 kts | 360° |
| 2026-05-06 00:45 | 16.01279 | 38.92672 | 31901 ft | 499 kts | 360° |
| 2026-05-06 00:45 | 16.08227 | 38.92922 | 31885 ft | 500 kts | 360° |
| 2026-05-06 00:46 | 16.15190 | 38.93174 | 31897 ft | 500 kts | 360° |
| 2026-05-06 00:46 | 16.22144 | 38.93425 | 31884 ft | 500 kts | 360° |
| 2026-05-06 00:47 | 16.29097 | 38.93677 | 31877 ft | 500 kts | 360° |
| 2026-05-06 00:47 | 16.36051 | 38.93928 | 31880 ft | 500 kts | 360° |
| 2026-05-06 00:48 | 16.43014 | 38.94180 | 31877 ft | 500 kts | 360° |
| 2026-05-06 00:48 | 16.49973 | 38.94432 | 31875 ft | 500 kts | 360° |
| 2026-05-06 00:49 | 16.56880 | 38.94682 | 31871 ft | 500 kts | 360° |
| 2026-05-06 00:49 | 16.63840 | 38.94934 | 31873 ft | 500 kts | 360° |
| 2026-05-06 00:50 | 16.70817 | 38.95187 | 31871 ft | 501 kts | 360° |
| 2026-05-06 00:50 | 16.77786 | 38.95440 | 31869 ft | 501 kts | 359° |
| 2026-05-06 00:51 | 16.84711 | 38.95692 | 31864 ft | 501 kts | 359° |
| 2026-05-06 00:51 | 16.91688 | 38.95945 | 31866 ft | 501 kts | 359° |
| 2026-05-06 00:52 | 16.98669 | 38.96200 | 31857 ft | 502 kts | 359° |
| 2026-05-06 00:52 | 17.05658 | 38.96454 | 31857 ft | 502 kts | 359° |
| 2026-05-06 00:53 | 17.12649 | 38.96709 | 31858 ft | 502 kts | 359° |
| 2026-05-06 00:53 | 17.19600 | 38.96963 | 31862 ft | 503 kts | 359° |
| 2026-05-06 00:54 | 17.26600 | 38.97218 | 31859 ft | 503 kts | 359° |
| 2026-05-06 00:54 | 17.33610 | 38.97474 | 31856 ft | 503 kts | 359° |
| 2026-05-06 00:55 | 17.40620 | 38.97731 | 31855 ft | 504 kts | 359° |
| 2026-05-06 00:55 | 17.47633 | 38.97984 | 31857 ft | 504 kts | 359° |
| 2026-05-06 00:56 | 17.54644 | 38.98235 | 31856 ft | 504 kts | 359° |
| 2026-05-06 00:56 | 17.61664 | 38.98486 | 31855 ft | 505 kts | 359° |
| 2026-05-06 00:57 | 17.68645 | 38.98737 | 31854 ft | 505 kts | 359° |
| 2026-05-06 00:57 | 17.75672 | 38.98989 | 31855 ft | 505 kts | 359° |
| 2026-05-06 00:58 | 17.82701 | 38.99242 | 31853 ft | 505 kts | 359° |
| 2026-05-06 00:58 | 17.89735 | 38.99494 | 31854 ft | 506 kts | 359° |
| 2026-05-06 00:59 | 17.96764 | 38.99747 | 31855 ft | 506 kts | 359° |
| 2026-05-06 00:59 | 18.03757 | 38.99999 | 31854 ft | 505 kts | 359° |
| 2026-05-06 01:00 | 18.10792 | 39.00253 | 31855 ft | 506 kts | 359° |
| 2026-05-06 01:00 | 18.17827 | 39.00525 | 31854 ft | 506 kts | 359° |
| 2026-05-06 01:01 | 18.24869 | 39.00898 | 31854 ft | 506 kts | 0° |
| 2026-05-06 01:01 | 18.31910 | 39.01301 | 31849 ft | 506 kts | 360° |
| 2026-05-06 01:02 | 18.38945 | 39.01699 | 31851 ft | 506 kts | 360° |
| 2026-05-06 01:02 | 18.45936 | 39.02088 | 31851 ft | 507 kts | 360° |